<?xml version="1.0" encoding="UTF-8" standalone="no" ?>
<gpx xmlns="http://www.topografix.com/GPX/1/1" xmlns:xsi="http://www.w3.org/2001/XMLSchema-instance" xsi:schemaLocation="http://www.topografix.com/GPX/1/1 http://www.topografix.com/GPX/1/1/gpx.xsd" version="1.1" creator="VisuGPX - https://www.visugpx.com">
  <metadata>
    <name>PR29-28 ESPOSOLIA (Les Angles 66) </name>
    <desc><![CDATA[Rando agréable et facile près des Angles (66) [url]http://trekkingzone.fr[/url]]]></desc>
  </metadata>
  <trk>
    <name><![CDATA[13507973-LES PR29-28 ESPOSOLIA]]></name>
    <trkseg>
      <trkpt lat="42.62375" lon="2.09451">
        <ele>1530</ele>
        <time>2021-08-06T08:53:27Z</time>
      </trkpt>
      <trkpt lat="42.6239" lon="2.09548">
        <ele>1528</ele>
        <time>2021-08-06T08:55:04Z</time>
      </trkpt>
      <trkpt lat="42.62296" lon="2.09712">
        <ele>1527</ele>
        <time>2021-08-06T08:58:28Z</time>
      </trkpt>
      <trkpt lat="42.62225" lon="2.09696">
        <ele>1529</ele>
        <time>2021-08-06T09:00:04Z</time>
      </trkpt>
      <trkpt lat="42.6218" lon="2.09707">
        <ele>1533</ele>
        <time>2021-08-06T09:01:06Z</time>
      </trkpt>
      <trkpt lat="42.62134" lon="2.09681">
        <ele>1539</ele>
        <time>2021-08-06T09:02:12Z</time>
      </trkpt>
      <trkpt lat="42.62134" lon="2.09681">
        <ele>1539</ele>
        <time>2021-08-06T09:02:12Z</time>
      </trkpt>
      <trkpt lat="42.62093" lon="2.0965">
        <ele>1546</ele>
        <time>2021-08-06T09:03:15Z</time>
      </trkpt>
      <trkpt lat="42.62014" lon="2.09543">
        <ele>1562</ele>
        <time>2021-08-06T09:05:43Z</time>
      </trkpt>
      <trkpt lat="42.61992" lon="2.09354">
        <ele>1562</ele>
        <time>2021-08-06T09:08:51Z</time>
      </trkpt>
      <trkpt lat="42.61988" lon="2.09201">
        <ele>1568</ele>
        <time>2021-08-06T09:11:22Z</time>
      </trkpt>
      <trkpt lat="42.62013" lon="2.09035">
        <ele>1568</ele>
        <time>2021-08-06T09:14:08Z</time>
      </trkpt>
      <trkpt lat="42.62076" lon="2.08796">
        <ele>1575</ele>
        <time>2021-08-06T09:18:17Z</time>
      </trkpt>
      <trkpt lat="42.62151" lon="2.08624">
        <ele>1569</ele>
        <time>2021-08-06T09:21:34Z</time>
      </trkpt>
      <trkpt lat="42.62229" lon="2.08473">
        <ele>1569</ele>
        <time>2021-08-06T09:24:35Z</time>
      </trkpt>
      <trkpt lat="42.62392" lon="2.08175">
        <ele>1564</ele>
        <time>2021-08-06T09:30:39Z</time>
      </trkpt>
      <trkpt lat="42.62475" lon="2.08002">
        <ele>1566</ele>
        <time>2021-08-06T09:34:02Z</time>
      </trkpt>
      <trkpt lat="42.62591" lon="2.0778">
        <ele>1571</ele>
        <time>2021-08-06T09:38:30Z</time>
      </trkpt>
      <trkpt lat="42.62635" lon="2.07656">
        <ele>1574</ele>
        <time>2021-08-06T09:40:45Z</time>
      </trkpt>
      <trkpt lat="42.62749" lon="2.07464">
        <ele>1576</ele>
        <time>2021-08-06T09:44:47Z</time>
      </trkpt>
      <trkpt lat="42.62874" lon="2.07385">
        <ele>1556</ele>
        <time>2021-08-06T09:47:51Z</time>
      </trkpt>
      <trkpt lat="42.62961" lon="2.07258">
        <ele>1567</ele>
        <time>2021-08-06T09:50:41Z</time>
      </trkpt>
      <trkpt lat="42.63066" lon="2.072">
        <ele>1563</ele>
        <time>2021-08-06T09:53:13Z</time>
      </trkpt>
      <trkpt lat="42.63104" lon="2.07118">
        <ele>1568</ele>
        <time>2021-08-06T09:54:48Z</time>
      </trkpt>
      <trkpt lat="42.63093" lon="2.06872">
        <ele>1585</ele>
        <time>2021-08-06T09:58:50Z</time>
      </trkpt>
      <trkpt lat="42.63111" lon="2.06605">
        <ele>1601</ele>
        <time>2021-08-06T10:03:13Z</time>
      </trkpt>
      <trkpt lat="42.63102" lon="2.06405">
        <ele>1621</ele>
        <time>2021-08-06T10:06:30Z</time>
      </trkpt>
      <trkpt lat="42.63115" lon="2.06305">
        <ele>1623</ele>
        <time>2021-08-06T10:08:09Z</time>
      </trkpt>
      <trkpt lat="42.63178" lon="2.06122">
        <ele>1613</ele>
        <time>2021-08-06T10:11:28Z</time>
      </trkpt>
      <trkpt lat="42.63249" lon="2.05913">
        <ele>1610</ele>
        <time>2021-08-06T10:15:14Z</time>
      </trkpt>
      <trkpt lat="42.63323" lon="2.0574">
        <ele>1627</ele>
        <time>2021-08-06T10:18:30Z</time>
      </trkpt>
      <trkpt lat="42.63426" lon="2.05649">
        <ele>1633</ele>
        <time>2021-08-06T10:21:14Z</time>
      </trkpt>
      <trkpt lat="42.63515" lon="2.05625">
        <ele>1639</ele>
        <time>2021-08-06T10:23:15Z</time>
      </trkpt>
      <trkpt lat="42.63513" lon="2.05719">
        <ele>1647</ele>
        <time>2021-08-06T10:24:48Z</time>
      </trkpt>
      <trkpt lat="42.63419" lon="2.05959">
        <ele>1627</ele>
        <time>2021-08-06T10:29:15Z</time>
      </trkpt>
      <trkpt lat="42.63377" lon="2.0618">
        <ele>1622</ele>
        <time>2021-08-06T10:32:59Z</time>
      </trkpt>
      <trkpt lat="42.63363" lon="2.06499">
        <ele>1637</ele>
        <time>2021-08-06T10:38:12Z</time>
      </trkpt>
      <trkpt lat="42.63334" lon="2.06714">
        <ele>1626</ele>
        <time>2021-08-06T10:41:47Z</time>
      </trkpt>
      <trkpt lat="42.63352" lon="2.0682">
        <ele>1635</ele>
        <time>2021-08-06T10:43:34Z</time>
      </trkpt>
      <trkpt lat="42.63336" lon="2.07012">
        <ele>1626</ele>
        <time>2021-08-06T10:46:43Z</time>
      </trkpt>
      <trkpt lat="42.63279" lon="2.07225">
        <ele>1617</ele>
        <time>2021-08-06T10:50:26Z</time>
      </trkpt>
      <trkpt lat="42.63183" lon="2.07435">
        <ele>1610</ele>
        <time>2021-08-06T10:54:29Z</time>
      </trkpt>
      <trkpt lat="42.63082" lon="2.07647">
        <ele>1611</ele>
        <time>2021-08-06T10:58:37Z</time>
      </trkpt>
      <trkpt lat="42.62866" lon="2.08151">
        <ele>1609</ele>
        <time>2021-08-06T11:08:09Z</time>
      </trkpt>
      <trkpt lat="42.62697" lon="2.08483">
        <ele>1601</ele>
        <time>2021-08-06T11:14:46Z</time>
      </trkpt>
      <trkpt lat="42.62583" lon="2.08759">
        <ele>1594</ele>
        <time>2021-08-06T11:19:57Z</time>
      </trkpt>
      <trkpt lat="42.62516" lon="2.08956">
        <ele>1581</ele>
        <time>2021-08-06T11:23:30Z</time>
      </trkpt>
      <trkpt lat="42.62489" lon="2.09071">
        <ele>1576</ele>
        <time>2021-08-06T11:25:28Z</time>
      </trkpt>
      <trkpt lat="42.62492" lon="2.09193">
        <ele>1578</ele>
        <time>2021-08-06T11:27:28Z</time>
      </trkpt>
      <trkpt lat="42.62498" lon="2.09354">
        <ele>1568</ele>
        <time>2021-08-06T11:30:06Z</time>
      </trkpt>
      <trkpt lat="42.62561" lon="2.09439">
        <ele>1582</ele>
        <time>2021-08-06T11:32:05Z</time>
      </trkpt>
      <trkpt lat="42.62681" lon="2.09511">
        <ele>1613</ele>
        <time>2021-08-06T11:35:00Z</time>
      </trkpt>
      <trkpt lat="42.6278" lon="2.09578">
        <ele>1628</ele>
        <time>2021-08-06T11:37:27Z</time>
      </trkpt>
      <trkpt lat="42.62851" lon="2.09624">
        <ele>1630</ele>
        <time>2021-08-06T11:39:12Z</time>
      </trkpt>
      <trkpt lat="42.62891" lon="2.09675">
        <ele>1623</ele>
        <time>2021-08-06T11:40:26Z</time>
      </trkpt>
      <trkpt lat="42.629" lon="2.09615">
        <ele>1628</ele>
        <time>2021-08-06T11:41:26Z</time>
      </trkpt>
      <trkpt lat="42.6294" lon="2.09557">
        <ele>1626</ele>
        <time>2021-08-06T11:42:44Z</time>
      </trkpt>
      <trkpt lat="42.63007" lon="2.09627">
        <ele>1617</ele>
        <time>2021-08-06T11:44:36Z</time>
      </trkpt>
      <trkpt lat="42.63087" lon="2.09633">
        <ele>1600</ele>
        <time>2021-08-06T11:46:23Z</time>
      </trkpt>
      <trkpt lat="42.63208" lon="2.09618">
        <ele>1572</ele>
        <time>2021-08-06T11:49:06Z</time>
      </trkpt>
      <trkpt lat="42.6325" lon="2.09761">
        <ele>1555</ele>
        <time>2021-08-06T11:51:37Z</time>
      </trkpt>
      <trkpt lat="42.63337" lon="2.09758">
        <ele>1537</ele>
        <time>2021-08-06T11:53:33Z</time>
      </trkpt>
      <trkpt lat="42.63398" lon="2.09815">
        <ele>1527</ele>
        <time>2021-08-06T11:55:12Z</time>
      </trkpt>
      <trkpt lat="42.63479" lon="2.0985">
        <ele>1511</ele>
        <time>2021-08-06T11:57:05Z</time>
      </trkpt>
      <trkpt lat="42.63551" lon="2.09834">
        <ele>1500</ele>
        <time>2021-08-06T11:58:42Z</time>
      </trkpt>
      <trkpt lat="42.63455" lon="2.09953">
        <ele>1519</ele>
        <time>2021-08-06T12:01:36Z</time>
      </trkpt>
      <trkpt lat="42.63395" lon="2.10053">
        <ele>1534</ele>
        <time>2021-08-06T12:03:42Z</time>
      </trkpt>
      <trkpt lat="42.63341" lon="2.10135">
        <ele>1534</ele>
        <time>2021-08-06T12:05:31Z</time>
      </trkpt>
      <trkpt lat="42.63206" lon="2.10123">
        <ele>1530</ele>
        <time>2021-08-06T12:08:31Z</time>
      </trkpt>
      <trkpt lat="42.63132" lon="2.10106">
        <ele>1529</ele>
        <time>2021-08-06T12:10:11Z</time>
      </trkpt>
      <trkpt lat="42.63051" lon="2.10074">
        <ele>1530</ele>
        <time>2021-08-06T12:12:04Z</time>
      </trkpt>
      <trkpt lat="42.62971" lon="2.10031">
        <ele>1531</ele>
        <time>2021-08-06T12:13:59Z</time>
      </trkpt>
      <trkpt lat="42.62906" lon="2.10089">
        <ele>1512</ele>
        <time>2021-08-06T12:15:42Z</time>
      </trkpt>
      <trkpt lat="42.63108" lon="2.1019">
        <ele>1506</ele>
        <time>2021-08-06T12:20:30Z</time>
      </trkpt>
      <trkpt lat="42.631" lon="2.10258">
        <ele>1494</ele>
        <time>2021-08-06T12:21:37Z</time>
      </trkpt>
      <trkpt lat="42.63075" lon="2.1028">
        <ele>1494</ele>
        <time>2021-08-06T12:22:17Z</time>
      </trkpt>
      <trkpt lat="42.63051" lon="2.10301">
        <ele>1496</ele>
        <time>2021-08-06T12:22:55Z</time>
      </trkpt>
      <trkpt lat="42.63028" lon="2.10351">
        <ele>1502</ele>
        <time>2021-08-06T12:23:53Z</time>
      </trkpt>
      <trkpt lat="42.62978" lon="2.10395">
        <ele>1518</ele>
        <time>2021-08-06T12:25:12Z</time>
      </trkpt>
      <trkpt lat="42.62816" lon="2.10271">
        <ele>1520</ele>
        <time>2021-08-06T12:29:20Z</time>
      </trkpt>
      <trkpt lat="42.62672" lon="2.10171">
        <ele>1526</ele>
        <time>2021-08-06T12:32:56Z</time>
      </trkpt>
      <trkpt lat="42.62537" lon="2.1006">
        <ele>1530</ele>
        <time>2021-08-06T12:36:27Z</time>
      </trkpt>
      <trkpt lat="42.62484" lon="2.09986">
        <ele>1527</ele>
        <time>2021-08-06T12:38:08Z</time>
      </trkpt>
      <trkpt lat="42.62388" lon="2.09939">
        <ele>1530</ele>
        <time>2021-08-06T12:40:24Z</time>
      </trkpt>
      <trkpt lat="42.62346" lon="2.09865">
        <ele>1527</ele>
        <time>2021-08-06T12:41:56Z</time>
      </trkpt>
      <trkpt lat="42.62319" lon="2.09777">
        <ele>1526</ele>
        <time>2021-08-06T12:43:30Z</time>
      </trkpt>
      <trkpt lat="42.62319" lon="2.09683">
        <ele>1526</ele>
        <time>2021-08-06T12:45:02Z</time>
      </trkpt>
      <trkpt lat="42.62362" lon="2.0964">
        <ele>1527</ele>
        <time>2021-08-06T12:46:13Z</time>
      </trkpt>
      <trkpt lat="42.62379" lon="2.09582">
        <ele>1528</ele>
        <time>2021-08-06T12:47:15Z</time>
      </trkpt>
      <trkpt lat="42.624" lon="2.09452">
        <ele>1532</ele>
        <time>2021-08-06T12:49:25Z</time>
      </trkpt>
    </trkseg>
  </trk>
</gpx>